Αναφορές METAR από Ελληνικά Αεροδρόμια

Σε αυτή τη σελίδα, μπορείτε να παρακολουθείτε τις αναφορές METAR που προέρχονται από τα κυριότερα αεροδρόμια της Ελλάδας. Το περιεχόμενο αποκωδικοποιείται, οπτικοποιείται και γίνεται κατανοητό από τον καθένα με τη χρήση του όμορφου δίγλωσσου γραφικού περιβάλλοντος του meteothes.gr!

Η αρχική κωδικοποιημένη αναφορά, συμπεριλαμβάνεται επίσης στο κάτω μέρος. Σε όποια καθεστερεί η ενημέρωση, το προειδοποιητικό μήνυμα "Μη ενημερωμένο METAR!" εμφανίζεται στο πάνω μέρος της με κόκκινα γράμματα.

Εχουν προστεθεί επίσης δύο αεροδρόμια από γειτονικές χώρες, την Οχρίδα(ΠΓΔΜ) και την Σόφια(Βουλγαρία) για να ελέγχουμε την εξέλιξη των ψυχρών εισβολών από τα Βόρεια!

LGTS - Thessaloniki/Makedonia-Elev 7m
Απόσταση από meteothes.gr: Ν 13km
Ενημερώθηκε: 05/08/2021 04:20
Αίθριος
Αίθριος
 Ανεμος από Α
Ανεμος: Α 6 km/h
Θερμοκρασία: 24°C
Σημ. Δρόσου: 13°C
Υγρασία: 50%
Βαρόμετρο: 1011 hPa
Συνθήκες: Αίθριος
Ορατότητα: πάνω από 10 km
2021/08/05 01:20 LGTS 050120Z 08003KT CAVOK 24/13 Q1011 NOSIG
LGAV - Athens/Elef. Venizelos-Elev 94m
Απόσταση από meteothes.gr: ΝΝΑ 312km
Ενημερώθηκε: 05/08/2021 04:20
Αίθριος
Αίθριος
 Ανεμος από μεταβλητός
Ανεμος: μεταβλητός 4 km/h
Θερμοκρασία: 26°C
Σημ. Δρόσου: 10°C
Υγρασία: 37%
Βαρόμετρο: 1012 hPa
Συνθήκες: Αίθριος
Ορατότητα: πάνω από 10 km
2021/08/05 01:20 LGAV 050120Z VRB02KT CAVOK 26/10 Q1012 NOSIG
 
LGAL - Alexandroupolis-Elev 3m
Απόσταση από meteothes.gr: Α 251km
Ενημερώθηκε: 04/08/2021 22:50
ΜΗ Ενημερωμένο METAR!
Αίθριος
Αίθριος
 Ανεμος από άπνοια
Ανεμος: άπνοια
Θερμοκρασία: 28°C
Δείκτη Δυσφορίας: 32°C
Σημ. Δρόσου: 24°C
Υγρασία: 79%
Βαρόμετρο: 1012 hPa
Συνθήκες: Αίθριος
Ορατότητα: πάνω από 10 km
2021/08/04 19:50 LGAL 041950Z 00000KT CAVOK 28/24 Q1012
LGKV - Kavala/Crysoupolis-Elev 5m
Απόσταση από meteothes.gr: ΑΒΑ 144km
Ενημερώθηκε: 04/08/2021 23:20
ΜΗ Ενημερωμένο METAR!
Αίθριος
Αίθριος
 Ανεμος από άπνοια
Ανεμος: άπνοια
Θερμοκρασία: 28°C
Δείκτη Δυσφορίας: 32°C
Σημ. Δρόσου: 24°C
Υγρασία: 79%
Βαρόμετρο: 1012 hPa
Συνθήκες: Αίθριος
Ορατότητα: πάνω από 10 km
2021/08/04 20:20 LGKV 042020Z 00000KT CAVOK 28/24 Q1012
 
LGSK - Skiathos Island-Elev 15m
Απόσταση από meteothes.gr: ΝΝΑ 168km
Ενημερώθηκε: 04/08/2021 21:50
ΜΗ Ενημερωμένο METAR!
Αίθριος
Αίθριος
 Ανεμος από άπνοια
Ανεμος: άπνοια
Θερμοκρασία: 29°C
Δείκτη Δυσφορίας: 34°C
Σημ. Δρόσου: 25°C
Υγρασία: 79%
Βαρόμετρο: 1011 hPa
Συνθήκες: Αίθριος
Ορατότητα: πάνω από 10 km
2021/08/04 18:50 LGSK 041850Z 00000KT CAVOK 29/25 Q1011
LGLM - Limnos Island-Elev 5m
Απόσταση από meteothes.gr: ΑΝΑ 210km
Ενημερώθηκε: 05/08/2021 02:50
ΜΗ Ενημερωμένο METAR!
Αίθριος
Αίθριος
 Ανεμος από άπνοια
Ανεμος: άπνοια
Θερμοκρασία: 24°C
Σημ. Δρόσου: 19°C
Υγρασία: 74%
Βαρόμετρο: 1011 hPa
Συνθήκες: Αίθριος
Ορατότητα: πάνω από 10 km
2021/08/04 23:50 LGLM 042350Z 00000KT CAVOK 24/19 Q1011
 
LGMT - Mitilini Island-Elev 17m
Απόσταση από meteothes.gr: ΑΝΑ 358km
Ενημερώθηκε: 05/08/2021 03:50
Αίθριος
Αίθριος
 Ανεμος από μεταβλητός
Ανεμος: μεταβλητός 4 km/h
Θερμοκρασία: 29°C
Δείκτη Δυσφορίας: 29°C
Σημ. Δρόσου: 17°C
Υγρασία: 48%
Βαρόμετρο: 1012 hPa
Συνθήκες: Αίθριος
Ορατότητα: πάνω από 10 km
2021/08/05 00:50 LGMT 050050Z VRB02KT CAVOK 29/17 Q1012
LGSY - Skiros Island-Elev 15m
Απόσταση από meteothes.gr: ΝΑ 227km
Ενημερώθηκε: 04/08/2021 21:50
ΜΗ Ενημερωμένο METAR!
Αίθριος
Αίθριος
 Ανεμος από άπνοια
Ανεμος: άπνοια
Θερμοκρασία: 28°C
Δείκτη Δυσφορίας: 30°C
Σημ. Δρόσου: 22°C
Υγρασία: 70%
Βαρόμετρο: 1012 hPa
Συνθήκες: Αίθριος
Ορατότητα: πάνω από 10 km
2021/08/04 18:50 LGSY 041850Z 00000KT CAVOK 28/22 Q1012 BLU
 
LGKZ - Kozani-Elev 628m
Απόσταση από meteothes.gr: ΔΝΔ 102km
Ενημερώθηκε: 05/08/2021 04:20

 Ανεμος από μεταβλητός
Ανεμος: μεταβλητός 6 km/h
Θερμοκρασία: 23°C
Σημ. Δρόσου: 7°C
Υγρασία: 36%
Βαρόμετρο: 1017 hPa
2021/08/05 01:20 LGKZ 050120Z AUTO VRB03KT //// // ////// 23/07 Q1017 RE//
LGIO - Ioannina-Elev 476m
Απόσταση από meteothes.gr: ΔΝΔ 209km
Ενημερώθηκε: 05/08/2021 04:20

 Ανεμος από μεταβλητός
Ανεμος: μεταβλητός 2 km/h
Θερμοκρασία: 18°C
Σημ. Δρόσου: 13°C
Υγρασία: 73%
Βαρόμετρο: 1017 hPa
2021/08/05 01:20 LGIO 050120Z AUTO VRB01KT //// // ////// 18/13 Q1017 RE//
 
LGZA - Zakinthos-Elev 3m
Απόσταση από meteothes.gr: ΝΝΔ 367km
Ενημερώθηκε: 04/08/2021 21:50
ΜΗ Ενημερωμένο METAR!
Αίθριος
Αίθριος
 Ανεμος από Β
Ανεμος: Β 9 km/h
Θερμοκρασία: 30°C
Δείκτη Δυσφορίας: 32°C
Σημ. Δρόσου: 20°C
Υγρασία: 55%
Βαρόμετρο: 1013 hPa
Συνθήκες: Αίθριος
Ορατότητα: πάνω από 10 km
2021/08/04 18:50 LGZA 041850Z 35005KT CAVOK 30/20 Q1013
LGKR - Corfu Island-Elev 2m
Απόσταση από meteothes.gr: ΔΝΔ 282km
Ενημερώθηκε: 05/08/2021 04:20
Αίθριος
Αίθριος
 Ανεμος από άπνοια
Ανεμος: άπνοια
Θερμοκρασία: 24°C
Σημ. Δρόσου: 20°C
Υγρασία: 78%
Βαρόμετρο: 1013 hPa
Συνθήκες: Αίθριος
Ορατότητα: πάνω από 10 km
2021/08/05 01:20 LGKR 050120Z 00000KT CAVOK 24/20 Q1013 NOSIG
 
LGSO - Syros Island-Elev 72m
Απόσταση από meteothes.gr: ΝΝΑ 397km
Ενημερώθηκε: 05/08/2021 04:20

 Ανεμος από μεταβλητός
Ανεμος: μεταβλητός 6 km/h
Θερμοκρασία: 33°C
Σημ. Δρόσου: 8°C
Υγρασία: 21%
Βαρόμετρο: 1011 hPa
2021/08/05 01:20 LGSO 050120Z AUTO VRB03KT //// // ////// 33/08 Q1011 RE//
LGMK - Mikonos Island-Elev 123m
Απόσταση από meteothes.gr: ΝΝΑ 412km
Ενημερώθηκε: 05/08/2021 02:50
ΜΗ Ενημερωμένο METAR!
Αίθριος
Αίθριος
 Ανεμος από ΒΒΔ
Ανεμος: ΒΒΔ 9 km/h
Θερμοκρασία: 30°C
Δείκτη Δυσφορίας: 30°C
Σημ. Δρόσου: 16°C
Υγρασία: 43%
Βαρόμετρο: 1012 hPa
Συνθήκες: Αίθριος
Ορατότητα: πάνω από 10 km
2021/08/04 23:50 LGMK 042350Z 33005KT CAVOK 30/16 Q1012
 
LGSR - Santorini Island-Elev 40m
Απόσταση από meteothes.gr: ΝΝΑ 520km
Ενημερώθηκε: 05/08/2021 02:50
ΜΗ Ενημερωμένο METAR!
Αίθριος
Αίθριος
 Ανεμος από Δ
Ανεμος: Δ 15 km/h
Θερμοκρασία: 31°C
Σημ. Δρόσου: 15°C
Υγρασία: 38%
Βαρόμετρο: 1011 hPa
Συνθήκες: Αίθριος
Ορατότητα: πάνω από 10 km
2021/08/04 23:50 LGSR 042350Z 28008KT CAVOK 31/15 Q1011
LGKL - Kalamata-Elev 8m
Απόσταση από meteothes.gr: Ν 405km
Ενημερώθηκε: 05/08/2021 04:20

 Ανεμος από ΒΔ
Ανεμος: ΒΔ 9 km/h
Θερμοκρασία: 27°C
Σημ. Δρόσου: 12°C
Υγρασία: 39%
Βαρόμετρο: 1012 hPa
2021/08/05 01:20 LGKL 050120Z AUTO 32005KT //// // ////// 27/12 Q1012 RE//
 
LGIR - Iraklion/Crete-Elev 5m
Απόσταση από meteothes.gr: ΝΝΑ 622km
Ενημερώθηκε: 05/08/2021 04:20
Αίθριος
Αίθριος
 Ανεμος από Ν
Ανεμος: Ν 7 km/h
Θερμοκρασία: 26°C
Σημ. Δρόσου: 21°C
Υγρασία: 74%
Βαρόμετρο: 1011 hPa
Συνθήκες: Αίθριος
Ορατότητα: πάνω από 10 km
2021/08/05 01:20 LGIR 050120Z 17004KT CAVOK 26/21 Q1011 NOSIG
LGRP - Rhodes-Elev 5m
Απόσταση από meteothes.gr: ΝΑ 649km
Ενημερώθηκε: 05/08/2021 04:20
Αίθριος
Αίθριος
 Ανεμος από ΝΔ
Ανεμος: ΝΔ 15 km/h
Θερμοκρασία: 31°C
Δείκτη Δυσφορίας: 33°C
Σημ. Δρόσου: 20°C
Υγρασία: 52%
Βαρόμετρο: 1006 hPa
Συνθήκες: Αίθριος
Ορατότητα: πάνω από 10 km
2021/08/05 01:20 LGRP 050120Z 22008KT CAVOK 31/20 Q1006 NOSIG
 
LWOH - Ohrid/FYROM-Elev 761m
Απόσταση από meteothes.gr: ΔΒΔ 188km
Ενημερώθηκε: 04/08/2021 23:00
ΜΗ Ενημερωμένο METAR!
Αίθριος
Αίθριος
 Ανεμος από ΑΝΑ
Ανεμος: ΑΝΑ 11 km/h
Θερμοκρασία: 25°C
Σημ. Δρόσου: 10°C
Υγρασία: 39%
Βαρόμετρο: 1018 hPa
Συνθήκες: Αίθριος
Ορατότητα: πάνω από 10 km
2021/08/04 20:00 LWOH 042000Z 12006KT CAVOK 25/10 Q1018
LBSF - Sofia/Bulgaria-Elev 595m
Απόσταση από meteothes.gr: Β 227km
Ενημερώθηκε: 05/08/2021 04:30
Αίθριος
Αίθριος
 Ανεμος από ΒΔ
Ανεμος: ΒΔ 7 km/h
Θερμοκρασία: 19°C
Σημ. Δρόσου: 13°C
Υγρασία: 68%
Βαρόμετρο: 1015 hPa
Συνθήκες: Αίθριος
Ορατότητα: πάνω από 10 km
2021/08/05 01:30 LBSF 050130Z 31004KT CAVOK 19/13 Q1015 NOSIG

(*) Μερικές αναφορές παρουσιάζουν λιγότερα στοιχεία γιατί οι αρχικές είναι ελλιπείς ή έχουν λάθος μορφοποίηση!